Time;durP1;ratioP1;P1;durP2;ratioP2;P2;SDS_P1;SDS_P2;PMS_P1;PMS_P2;Temp;Humidity;BMP_temperature;BMP_pressure;BME280_temperature;BME280_humidity;BME280_pressure;Samples;Min_cycle;Max_cycle;Signal;HPM_P1;HPM_P2
2022/10/02 00:02:38;;;;;;;5.38;1.83;;;17.00;1.00;;;;;;5087816;28;20020;-57
2022/10/02 00:05:17;;;;;;;4.63;2.05;;;17.00;1.00;;;;;;5081057;28;20093;-54
2022/10/02 00:07:48;;;;;;;3.55;1.98;;;16.80;1.00;;;;;;5092440;28;20103;-55
2022/10/02 00:10:26;;;;;;;5.72;2.00;;;16.90;1.00;;;;;;5094570;28;20028;-55
2022/10/02 00:13:02;;;;;;;4.50;2.10;;;16.90;1.00;;;;;;5084613;28;20051;-57
2022/10/02 00:15:31;;;;;;;2.28;1.70;;;16.90;1.00;;;;;;5094459;28;20020;-55
2022/10/02 00:18:05;;;;;;;4.43;1.90;;;16.90;1.00;;;;;;5082810;28;20105;-56
2022/10/02 00:20:59;;;;;;;4.10;1.88;;;16.90;1.00;;;;;;5094079;28;20032;-52
2022/10/02 00:23:38;;;;;;;3.92;2.03;;;17.00;1.00;;;;;;5092327;28;20027;-56
2022/10/02 00:26:29;;;;;;;2.47;1.85;;;17.00;1.00;;;;;;5086093;28;20043;-57
2022/10/02 00:29:13;;;;;;;5.13;1.95;;;16.90;1.00;;;;;;5107573;28;20020;-54
2022/10/02 00:31:53;;;;;;;3.55;1.85;;;16.90;1.00;;;;;;5079916;28;20034;-56
2022/10/02 00:34:47;;;;;;;5.72;1.90;;;16.90;1.00;;;;;;5083157;28;20043;-53
2022/10/02 00:37:21;;;;;;;3.13;1.88;;;16.90;1.00;;;;;;5085779;28;20378;-57
2022/10/02 00:39:49;;;;;;;2.72;1.60;;;16.90;1.00;;;;;;5093674;28;20371;-56
2022/10/02 00:42:42;;;;;;;3.88;1.63;;;16.90;1.00;;;;;;5080059;28;20107;-55
2022/10/02 00:45:20;;;;;;;2.75;1.67;;;16.90;1.00;;;;;;5081147;28;20029;-56
2022/10/02 00:47:45;;;;;;;5.93;1.92;;;16.90;1.00;;;;;;5082684;28;20108;-56
2022/10/02 00:50:32;;;;;;;5.55;1.77;;;16.90;1.00;;;;;;5092363;28;20059;-55
2022/10/02 00:53:32;;;;;;;2.33;1.60;;;16.90;1.00;;;;;;5084642;28;20048;-57
2022/10/02 00:56:26;;;;;;;3.60;1.80;;;16.80;1.00;;;;;;5092550;28;20080;-56
2022/10/02 00:58:58;;;;;;;3.72;1.92;;;16.80;1.00;;;;;;5092570;28;20035;-55
2022/10/02 01:01:43;;;;;;;7.13;1.60;;;16.80;1.00;;;;;;5093025;28;20032;-54
2022/10/02 01:04:28;;;;;;;3.63;1.90;;;16.80;1.00;;;;;;5082324;28;20036;-55
2022/10/02 01:06:55;;;;;;;3.03;1.55;;;16.80;1.00;;;;;;5090383;28;20028;-56
2022/10/02 01:09:22;;;;;;;2.67;1.45;;;16.80;1.00;;;;;;5082658;28;20457;-56
2022/10/02 01:11:48;;;;;;;2.42;1.45;;;16.80;1.00;;;;;;5081205;28;20103;-56
2022/10/02 01:14:14;;;;;;;2.95;1.67;;;16.80;1.00;;;;;;5086287;28;20548;-56
2022/10/02 01:16:42;;;;;;;1.73;1.30;;;16.70;1.00;;;;;;5086582;28;20024;-56
2022/10/02 01:19:24;;;;;;;2.20;1.33;;;16.70;1.00;;;;;;5091116;28;20024;-57
2022/10/02 01:21:57;;;;;;;1.75;1.45;;;16.80;1.00;;;;;;5093310;28;20039;-54
2022/10/02 01:24:35;;;;;;;3.53;1.70;;;16.70;1.00;;;;;;5080787;28;20035;-54
2022/10/02 01:27:01;;;;;;;5.55;1.75;;;16.80;1.00;;;;;;5090987;28;20529;-56
2022/10/02 01:29:27;;;;;;;2.10;1.50;;;16.70;1.00;;;;;;5091983;28;20055;-56
2022/10/02 01:31:54;;;;;;;2.63;1.65;;;16.70;1.00;;;;;;5091635;28;20050;-53
2022/10/02 01:34:20;;;;;;;2.60;1.75;;;16.70;1.00;;;;;;5092035;28;20094;-55
2022/10/02 01:36:46;;;;;;;4.28;2.28;;;16.70;1.00;;;;;;5091360;28;20016;-54
2022/10/02 01:39:12;;;;;;;2.70;2.30;;;16.70;1.00;;;;;;5088202;28;20025;-56
2022/10/02 01:41:42;;;;;;;3.35;2.22;;;16.60;1.00;;;;;;5081713;28;20097;-54
2022/10/02 01:44:08;;;;;;;5.28;2.28;;;16.50;1.00;;;;;;5086693;28;20024;-54
2022/10/02 01:46:54;;;;;;;3.10;1.90;;;16.60;1.00;;;;;;5094908;28;20103;-55
2022/10/02 01:49:45;;;;;;;8.50;2.47;;;16.60;1.00;;;;;;5091301;28;20472;-56
2022/10/02 01:52:30;;;;;;;4.75;1.70;;;16.60;1.00;;;;;;5086815;28;20515;-56
2022/10/02 01:55:33;;;;;;;2.67;2.00;;;16.60;1.00;;;;;;5079029;28;20118;-52
2022/10/02 01:58:32;;;;;;;2.13;1.63;;;16.70;1.00;;;;;;5091010;28;20160;-55
2022/10/02 02:01:19;;;;;;;4.15;2.10;;;16.60;1.00;;;;;;5086684;28;20024;-56
2022/10/02 02:04:11;;;;;;;3.63;2.08;;;16.60;1.00;;;;;;5088592;28;20504;-50
2022/10/02 02:07:09;;;;;;;2.75;2.10;;;16.60;1.00;;;;;;5092249;28;20096;-51
2022/10/02 02:09:50;;;;;;;4.97;2.92;;;16.50;1.00;;;;;;5091072;28;20036;-54
2022/10/02 02:12:16;;;;;;;6.78;2.58;;;16.40;1.00;;;;;;5090806;28;20107;-55
2022/10/02 02:14:49;;;;;;;3.20;2.50;;;16.30;1.00;;;;;;5089477;28;20452;-54
2022/10/02 02:17:39;;;;;;;4.28;2.38;;;16.40;1.00;;;;;;5079291;28;20044;-56
2022/10/02 02:20:12;;;;;;;5.18;2.92;;;16.40;1.00;;;;;;5091636;28;20085;-54
2022/10/02 02:22:45;;;;;;;5.38;3.20;;;16.40;1.00;;;;;;5088626;28;20019;-53
2022/10/02 02:25:15;;;;;;;4.07;2.53;;;16.40;1.00;;;;;;5091962;28;20020;-51
2022/10/02 02:27:46;;;;;;;5.93;3.45;;;16.40;1.00;;;;;;5087092;28;20036;-53
2022/10/02 02:30:13;;;;;;;6.38;3.10;;;16.40;1.00;;;;;;5081769;28;20024;-54
2022/10/02 02:32:50;;;;;;;6.68;3.50;;;16.40;1.00;;;;;;5090509;28;20094;-54
2022/10/02 02:35:38;;;;;;;5.55;3.58;;;16.40;1.00;;;;;;5091954;28;20115;-54
2022/10/02 02:38:27;;;;;;;4.18;3.15;;;16.40;1.00;;;;;;5088738;28;20485;-55
2022/10/02 02:40:59;;;;;;;5.35;3.78;;;16.30;1.00;;;;;;5085672;28;20028;-53
2022/10/02 02:43:37;;;;;;;4.47;3.63;;;16.30;1.00;;;;;;5090913;28;20086;-54
2022/10/02 02:46:13;;;;;;;3.92;3.17;;;16.30;1.00;;;;;;5091823;28;20579;-56
2022/10/02 02:48:44;;;;;;;5.05;3.33;;;16.30;1.00;;;;;;5091013;28;20059;-53
2022/10/02 02:51:28;;;;;;;5.63;3.33;;;16.30;1.00;;;;;;5091413;28;20036;-52
2022/10/02 02:54:12;;;;;;;3.80;3.45;;;16.30;1.00;;;;;;5088878;28;20123;-51
2022/10/02 02:56:39;;;;;;;3.95;3.50;;;16.30;1.00;;;;;;5091430;28;20478;-54
2022/10/02 02:59:09;;;;;;;5.68;3.92;;;16.30;1.00;;;;;;5089702;28;20060;-56
2022/10/02 03:01:35;;;;;;;5.95;3.40;;;16.30;1.00;;;;;;5091681;28;20112;-56
2022/10/02 03:04:01;;;;;;;3.63;3.20;;;16.30;1.00;;;;;;5078499;28;20059;-53
2022/10/02 03:06:48;;;;;;;4.50;3.47;;;16.30;1.00;;;;;;5073867;28;20024;-55
2022/10/02 03:09:18;;;;;;;4.20;2.97;;;16.20;1.00;;;;;;5085877;28;20512;-53
2022/10/02 03:12:05;;;;;;;4.85;3.67;;;16.30;1.00;;;;;;5085680;28;20023;-56
2022/10/02 03:14:34;;;;;;;4.10;3.25;;;16.20;1.00;;;;;;5086767;28;20032;-56
2022/10/02 03:17:08;;;;;;;3.50;3.20;;;16.20;1.00;;;;;;5106930;28;20644;-56
2022/10/02 03:19:52;;;;;;;3.75;3.35;;;16.20;1.00;;;;;;5088143;28;20027;-56
2022/10/02 03:22:45;;;;;;;4.60;3.55;;;16.20;1.00;;;;;;5075816;28;20137;-54
2022/10/02 03:25:20;;;;;;;4.75;3.13;;;16.20;1.00;;;;;;5074217;28;20025;-56
2022/10/02 03:28:06;;;;;;;4.20;3.45;;;16.00;1.00;;;;;;5077971;28;20044;-56
2022/10/02 03:30:34;;;;;;;4.65;3.40;;;16.10;1.00;;;;;;5070951;28;20097;-55
2022/10/02 03:33:02;;;;;;;5.40;3.15;;;16.20;1.00;;;;;;5071448;28;20044;-54
2022/10/02 03:35:29;;;;;;;3.78;3.30;;;16.10;1.00;;;;;;5086913;28;20028;-54
2022/10/02 03:37:59;;;;;;;3.85;3.17;;;16.10;1.00;;;;;;5086283;28;20043;-57
2022/10/02 03:40:26;;;;;;;3.50;3.17;;;16.20;1.00;;;;;;5094289;28;20024;-56
2022/10/02 03:42:57;;;;;;;2.88;2.63;;;16.10;1.00;;;;;;5093177;28;20055;-56
2022/10/02 03:45:23;;;;;;;4.45;3.13;;;16.10;1.00;;;;;;5093711;28;20024;-53
2022/10/02 03:47:49;;;;;;;2.90;2.60;;;16.10;1.00;;;;;;5093546;28;20019;-53
2022/10/02 03:50:14;;;;;;;4.07;2.65;;;16.10;1.00;;;;;;5092072;28;20489;-53
2022/10/02 03:52:40;;;;;;;2.88;2.60;;;16.10;1.00;;;;;;5091599;28;20048;-54
2022/10/02 03:55:28;;;;;;;2.80;2.53;;;16.10;1.00;;;;;;5093624;28;20027;-55
2022/10/02 03:57:54;;;;;;;3.70;2.80;;;16.10;1.00;;;;;;5091902;28;20019;-54
2022/10/02 04:00:57;;;;;;;5.32;2.90;;;16.00;1.00;;;;;;5092306;28;20119;-56
2022/10/02 04:03:35;;;;;;;3.58;2.30;;;16.00;1.00;;;;;;5080707;28;20040;-53
2022/10/02 04:06:33;;;;;;;2.28;2.13;;;16.10;1.00;;;;;;5081402;28;20070;-56
2022/10/02 04:09:09;;;;;;;3.03;2.22;;;16.10;1.00;;;;;;5083796;28;20024;-54
2022/10/02 04:11:48;;;;;;;3.90;2.97;;;16.00;1.00;;;;;;5094029;28;20032;-51
2022/10/02 04:14:20;;;;;;;2.75;2.53;;;16.00;1.00;;;;;;5083578;28;20119;-54
2022/10/02 04:17:02;;;;;;;2.50;2.30;;;16.00;1.00;;;;;;5077581;28;20016;-52
2022/10/02 04:20:07;;;;;;;2.40;2.20;;;16.00;1.00;;;;;;5092101;28;20043;-53
2022/10/02 04:22:39;;;;;;;3.03;2.30;;;16.00;1.00;;;;;;5082744;28;20532;-54
2022/10/02 04:25:05;;;;;;;4.85;2.50;;;16.00;1.00;;;;;;5093654;28;20035;-50
2022/10/02 04:27:37;;;;;;;2.47;1.90;;;16.00;1.00;;;;;;5094110;28;20378;-56
2022/10/02 04:30:15;;;;;;;3.58;2.13;;;16.00;1.00;;;;;;5089375;28;20407;-55
2022/10/02 04:32:41;;;;;;;2.85;2.15;;;16.00;1.00;;;;;;5086159;28;20036;-54
2022/10/02 04:35:31;;;;;;;2.88;2.20;;;16.00;1.00;;;;;;5088839;28;20031;-53
2022/10/02 04:38:30;;;;;;;3.50;2.03;;;15.90;1.00;;;;;;5092616;28;20153;-56
2022/10/02 04:40:59;;;;;;;5.30;2.58;;;16.00;1.00;;;;;;5079685;28;20457;-53
2022/10/02 04:44:01;;;;;;;3.90;2.28;;;16.00;1.00;;;;;;5081904;28;20047;-56
2022/10/02 04:46:33;;;;;;;2.35;2.20;;;15.90;1.00;;;;;;5073575;28;20044;-56
2022/10/02 04:49:31;;;;;;;4.38;2.67;;;15.90;1.00;;;;;;5085729;28;20056;-56
2022/10/02 04:52:34;;;;;;;4.35;2.47;;;16.00;1.00;;;;;;5093000;28;20044;-55
2022/10/02 04:55:26;;;;;;;2.70;2.20;;;15.90;1.00;;;;;;5093192;28;20046;-55
2022/10/02 04:58:20;;;;;;;3.08;2.40;;;15.90;1.00;;;;;;5080811;28;20028;-55
2022/10/02 05:01:23;;;;;;;3.50;2.47;;;15.90;1.00;;;;;;5091259;28;20050;-57
2022/10/02 05:04:04;;;;;;;2.72;2.53;;;15.90;1.00;;;;;;5070011;28;20041;-56
2022/10/02 05:06:41;;;;;;;2.13;2.03;;;15.90;1.00;;;;;;5093466;28;20060;-55
2022/10/02 05:09:30;;;;;;;4.38;2.40;;;15.90;1.00;;;;;;5092211;28;20130;-56
2022/10/02 05:12:23;;;;;;;4.82;2.30;;;15.90;1.00;;;;;;5092943;28;20032;-54
2022/10/02 05:14:54;;;;;;;2.60;2.40;;;15.90;1.00;;;;;;5077904;28;20101;-57
2022/10/02 05:17:35;;;;;;;2.88;2.67;;;15.90;1.00;;;;;;5085140;28;20039;-56
2022/10/02 05:20:32;;;;;;;3.67;2.25;;;15.90;1.00;;;;;;5085882;28;20395;-56
2022/10/02 05:23:15;;;;;;;2.78;2.50;;;15.90;1.00;;;;;;5079465;28;20398;-57
2022/10/02 05:26:05;;;;;;;4.28;2.30;;;15.90;1.00;;;;;;5087247;28;20024;-54
2022/10/02 05:29:04;;;;;;;3.10;2.80;;;15.90;1.00;;;;;;5092002;28;20035;-57
2022/10/02 05:31:48;;;;;;;3.75;2.60;;;15.90;1.00;;;;;;5091109;28;20140;-55
2022/10/02 05:34:42;;;;;;;3.50;2.77;;;15.80;1.00;;;;;;5074167;28;20036;-55
2022/10/02 05:37:29;;;;;;;2.92;2.22;;;15.90;1.00;;;;;;5078150;28;20127;-56
2022/10/02 05:40:16;;;;;;;4.68;3.13;;;15.80;1.00;;;;;;5089478;28;20020;-56
2022/10/02 05:43:11;;;;;;;3.17;2.80;;;15.80;1.00;;;;;;5080305;28;20384;-56
2022/10/02 05:45:39;;;;;;;4.72;2.30;;;15.80;1.00;;;;;;5090116;28;20035;-56
2022/10/02 05:48:20;;;;;;;3.58;2.47;;;15.80;1.00;;;;;;5092447;28;20020;-55
2022/10/02 05:50:51;;;;;;;3.03;2.42;;;15.80;1.00;;;;;;5087878;28;20024;-55
2022/10/02 05:53:45;;;;;;;2.85;2.35;;;15.80;1.00;;;;;;5086095;28;20123;-56
2022/10/02 05:56:29;;;;;;;4.55;2.45;;;15.80;1.00;;;;;;5074379;28;20063;-56
2022/10/02 05:59:12;;;;;;;2.47;2.03;;;15.80;1.00;;;;;;5081988;28;20028;-56
2022/10/02 06:01:46;;;;;;;4.97;2.70;;;15.80;1.00;;;;;;5079011;28;20482;-54
2022/10/02 06:04:27;;;;;;;3.15;2.42;;;15.80;1.00;;;;;;5091906;28;20024;-55
2022/10/02 06:07:05;;;;;;;6.20;3.00;;;15.80;1.00;;;;;;5090252;28;20076;-55
2022/10/02 06:09:47;;;;;;;3.30;2.40;;;15.90;1.00;;;;;;5076097;28;20028;-56
2022/10/02 06:12:34;;;;;;;2.88;2.67;;;15.90;1.00;;;;;;5083552;28;20183;-56
2022/10/02 06:15:05;;;;;;;4.82;3.22;;;15.80;1.00;;;;;;5092211;28;20024;-56
2022/10/02 06:17:40;;;;;;;4.50;2.53;;;15.90;1.00;;;;;;5084586;28;20490;-56
2022/10/02 06:20:39;;;;;;;4.95;2.95;;;15.90;1.00;;;;;;5092184;28;20035;-54
2022/10/02 06:23:25;;;;;;;3.47;3.17;;;15.90;1.00;;;;;;5086149;28;20028;-55
2022/10/02 06:25:55;;;;;;;4.10;2.97;;;15.90;1.00;;;;;;5087620;28;20032;-56
2022/10/02 06:28:47;;;;;;;3.50;2.95;;;15.90;1.00;;;;;;5088510;28;20020;-56
2022/10/02 06:31:24;;;;;;;3.85;3.20;;;15.90;1.00;;;;;;5090925;28;20026;-56
2022/10/02 06:33:51;;;;;;;8.73;2.97;;;16.00;1.00;;;;;;5078598;28;20036;-51
2022/10/02 06:36:25;;;;;;;3.45;3.15;;;16.00;1.00;;;;;;5090088;28;20035;-53
2022/10/02 06:38:56;;;;;;;4.70;3.53;;;16.00;1.00;;;;;;5091685;28;20035;-55
2022/10/02 06:41:42;;;;;;;3.35;3.05;;;16.10;1.00;;;;;;5083439;28;20509;-56
2022/10/02 06:44:17;;;;;;;6.40;3.53;;;16.10;1.00;;;;;;5079878;28;20085;-53
2022/10/02 06:47:13;;;;;;;4.57;3.05;;;16.10;1.00;;;;;;5091249;28;20074;-56
2022/10/02 06:50:20;;;;;;;4.05;3.70;;;16.10;1.00;;;;;;5089159;28;20024;-53
2022/10/02 06:53:06;;;;;;;3.00;2.80;;;16.00;1.00;;;;;;5068933;28;20048;-53
2022/10/02 06:55:43;;;;;;;6.13;3.88;;;16.10;1.00;;;;;;5090587;28;20402;-55
2022/10/02 06:58:08;;;;;;;4.50;3.13;;;16.10;1.00;;;;;;5082384;28;20032;-54
2022/10/02 07:00:46;;;;;;;5.25;3.45;;;16.10;1.00;;;;;;5089534;28;20016;-55
2022/10/02 07:03:50;;;;;;;6.07;3.13;;;16.10;1.00;;;;;;5082273;28;20032;-53
2022/10/02 07:06:25;;;;;;;4.47;3.22;;;16.10;1.00;;;;;;5086472;28;20029;-55
2022/10/02 07:09:15;;;;;;;3.25;2.95;;;16.10;1.00;;;;;;5091612;28;20485;-55
2022/10/02 07:12:01;;;;;;;3.65;3.25;;;16.20;1.00;;;;;;5081950;28;20021;-56
2022/10/02 07:15:02;;;;;;;3.67;3.28;;;16.10;1.00;;;;;;5091342;28;20504;-56
2022/10/02 07:17:46;;;;;;;5.95;3.53;;;16.20;1.00;;;;;;5083222;28;20028;-61
2022/10/02 07:20:33;;;;;;;5.65;3.50;;;16.20;1.00;;;;;;5095658;28;20020;-61
2022/10/02 07:23:34;;;;;;;5.90;4.28;;;16.30;1.00;;;;;;5094159;28;20020;-61
2022/10/02 07:26:05;;;;;;;5.32;3.85;;;16.30;1.00;;;;;;5092598;28;20115;-60
2022/10/02 07:28:44;;;;;;;4.95;3.88;;;16.20;1.00;;;;;;5090581;28;20122;-61
2022/10/02 07:31:40;;;;;;;6.22;3.95;;;16.20;1.00;;;;;;5090498;28;20024;-60
2022/10/02 07:34:39;;;;;;;5.03;3.97;;;16.20;1.00;;;;;;5092348;28;20062;-54
2022/10/02 07:37:36;;;;;;;3.95;3.50;;;16.20;1.00;;;;;;5090768;28;20352;-57
2022/10/02 07:40:09;;;;;;;4.43;3.60;;;16.20;1.00;;;;;;5092981;28;20025;-57
2022/10/02 07:43:02;;;;;;;5.85;3.63;;;16.20;1.00;;;;;;5087355;28;20362;-56
2022/10/02 07:45:38;;;;;;;7.35;3.97;;;16.30;1.00;;;;;;5095050;28;20024;-56
2022/10/02 07:48:11;;;;;;;4.50;3.97;;;16.30;1.00;;;;;;5084784;28;20047;-57
2022/10/02 07:50:56;;;;;;;7.38;4.78;;;16.30;1.00;;;;;;5093989;28;20362;-53
2022/10/02 07:53:45;;;;;;;8.25;4.82;;;16.40;1.00;;;;;;5086565;28;20106;-57
2022/10/02 07:56:18;;;;;;;4.57;3.55;;;16.40;1.00;;;;;;5083016;28;20085;-57
2022/10/02 07:58:57;;;;;;;7.65;6.30;;;16.40;1.00;;;;;;5110512;28;20354;-56
2022/10/02 08:01:35;;;;;;;9.82;8.93;;;16.40;1.00;;;;;;5093907;28;20024;-56
2022/10/02 08:04:10;;;;;;;7.25;6.53;;;16.40;1.00;;;;;;5084757;28;20051;-57
2022/10/02 08:06:36;;;;;;;5.75;5.25;;;16.50;1.00;;;;;;5088277;28;20378;-57
2022/10/02 08:09:18;;;;;;;8.35;5.30;;;16.50;1.00;;;;;;5092831;28;20438;-56
2022/10/02 08:12:14;;;;;;;4.47;4.05;;;16.60;1.00;;;;;;5086874;28;20509;-56
2022/10/02 08:14:45;;;;;;;5.32;4.82;;;16.60;1.00;;;;;;5080049;28;20028;-56
2022/10/02 08:17:24;;;;;;;5.45;4.20;;;16.60;1.00;;;;;;5093693;28;20027;-57
2022/10/02 08:19:51;;;;;;;5.88;3.90;;;16.70;1.00;;;;;;5087967;28;20062;-57
2022/10/02 08:22:27;;;;;;;4.35;3.95;;;16.60;1.00;;;;;;5090347;28;20044;-57
2022/10/02 08:24:57;;;;;;;4.07;3.78;;;16.60;1.00;;;;;;5081246;28;20028;-57
2022/10/02 08:27:53;;;;;;;4.53;4.13;;;16.70;1.00;;;;;;5092749;28;20020;-57
2022/10/02 08:30:19;;;;;;;5.38;3.88;;;16.70;1.00;;;;;;5083517;28;20023;-57
2022/10/02 08:32:46;;;;;;;5.82;4.13;;;16.80;1.00;;;;;;5088018;28;20046;-56
2022/10/02 08:35:14;;;;;;;4.88;4.43;;;16.80;1.00;;;;;;5093211;28;20016;-56
2022/10/02 08:37:46;;;;;;;4.80;4.40;;;16.80;1.00;;;;;;5090045;28;20115;-57
2022/10/02 08:40:27;;;;;;;7.93;5.47;;;16.90;1.00;;;;;;5093002;28;20099;-57
2022/10/02 08:43:18;;;;;;;5.10;4.60;;;16.90;1.00;;;;;;5088330;28;20024;-57
2022/10/02 08:46:41;;;;;;;5.28;4.10;;;16.90;1.00;;;;;;5092252;28;20091;-58
2022/10/02 08:49:21;;;;;;;6.53;3.95;;;16.90;1.00;;;;;;5053051;28;20037;-55
2022/10/02 08:52:20;;;;;;;5.85;4.47;;;17.00;1.00;;;;;;5067514;28;20048;-60
2022/10/02 08:55:17;;;;;;;4.03;3.55;;;17.00;1.00;;;;;;5082013;28;20123;-60
2022/10/02 08:58:27;;;;;;;5.13;3.78;;;17.10;1.00;;;;;;5080437;28;20028;-60
2022/10/02 09:01:02;;;;;;;3.70;3.03;;;17.20;1.00;;;;;;5051795;28;20049;-61
2022/10/02 09:03:47;;;;;;;8.73;4.05;;;17.20;1.00;;;;;;5092715;28;20116;-61
2022/10/02 09:06:32;;;;;;;3.58;3.17;;;17.30;1.00;;;;;;5091955;28;20020;-60
2022/10/02 09:09:35;;;;;;;6.80;3.50;;;17.30;1.00;;;;;;5089282;28;20477;-60
2022/10/02 09:12:16;;;;;;;4.20;3.42;;;17.30;1.00;;;;;;5085892;28;20482;-60
2022/10/02 09:14:44;;;;;;;4.88;3.38;;;17.30;1.00;;;;;;5093421;28;20032;-60
2022/10/02 09:17:12;;;;;;;4.07;3.60;;;17.40;1.00;;;;;;5084325;28;20027;-61
2022/10/02 09:19:38;;;;;;;5.22;4.72;;;17.40;1.00;;;;;;5090432;28;20032;-60
2022/10/02 09:22:37;;;;;;;10.43;4.70;;;17.40;1.00;;;;;;5098696;28;20501;-60
2022/10/02 09:25:54;;;;;;;5.45;3.17;;;17.40;1.00;;;;;;5090245;28;20034;-61
2022/10/02 09:28:54;;;;;;;3.92;3.53;;;17.50;1.00;;;;;;5069147;28;20051;-61
2022/10/02 09:31:39;;;;;;;4.35;3.17;;;17.50;1.00;;;;;;5069877;28;20067;-61
2022/10/02 09:34:51;;;;;;;3.63;3.33;;;17.60;1.00;;;;;;5086229;28;20040;-62
2022/10/02 09:37:42;;;;;;;3.97;3.58;;;17.60;1.00;;;;;;5086146;28;20043;-63
2022/10/02 09:44:02;;;;;;;3.45;3.15;;;17.70;1.00;;;;;;5080862;28;20070;-63
2022/10/02 09:46:34;;;;;;;5.07;4.05;;;17.70;1.00;;;;;;5090795;28;20032;-63
2022/10/02 09:49:21;;;;;;;5.18;3.70;;;17.80;1.00;;;;;;5089233;28;20039;-64
2022/10/02 09:51:58;;;;;;;4.32;3.60;;;17.80;1.00;;;;;;5078850;28;20094;-63
2022/10/02 09:54:39;;;;;;;4.85;3.38;;;17.80;1.00;;;;;;5086985;28;20039;-63
2022/10/02 09:57:30;;;;;;;3.13;2.80;;;17.90;1.00;;;;;;5091467;28;20034;-63
2022/10/02 10:00:21;;;;;;;4.68;3.10;;;18.00;1.00;;;;;;5080177;28;20148;-63
2022/10/02 10:02:50;;;;;;;2.72;2.22;;;18.00;1.00;;;;;;5080774;28;20081;-63
2022/10/02 10:05:33;;;;;;;6.35;2.53;;;18.10;1.00;;;;;;5090939;28;20051;-61
2022/10/02 10:08:28;;;;;;;3.10;2.63;;;18.10;1.00;;;;;;5079901;28;20112;-61
2022/10/02 10:11:06;;;;;;;5.32;3.10;;;18.20;1.00;;;;;;5090082;28;20024;-62
2022/10/02 10:13:46;;;;;;;3.50;2.40;;;18.20;1.00;;;;;;5082500;28;20032;-61
2022/10/02 10:16:30;;;;;;;6.85;3.38;;;18.20;1.00;;;;;;5090876;28;20032;-62
2022/10/02 10:19:15;;;;;;;7.05;2.42;;;18.30;1.00;;;;;;5082059;28;20028;-62
2022/10/02 10:21:46;;;;;;;;;;;18.30;1.00;;;;;;5087630;28;20458;-61
2022/10/02 10:24:36;;;;;;;4.82;2.80;;;18.40;1.00;;;;;;5082537;28;19915;-61
2022/10/02 10:27:29;;;;;;;6.38;2.85;;;18.50;1.00;;;;;;5078183;28;20105;-61
2022/10/02 10:30:06;;;;;;;9.35;3.25;;;18.50;1.00;;;;;;5071876;28;20019;-61
2022/10/02 10:32:50;;;;;;;5.03;3.33;;;18.60;1.00;;;;;;5087755;28;20043;-57
2022/10/02 10:35:35;;;;;;;7.38;2.65;;;18.70;1.00;;;;;;5091212;28;20024;-54
2022/10/02 10:38:39;;;;;;;8.13;3.58;;;18.70;1.00;;;;;;5084748;28;20110;-58
2022/10/02 10:41:34;;;;;;;9.18;3.30;;;18.80;1.00;;;;;;5088148;28;20020;-60
2022/10/02 10:44:00;;;;;;;7.78;3.85;;;18.80;1.00;;;;;;5085087;28;20036;-61
2022/10/02 10:46:40;;;;;;;7.82;3.80;;;18.80;1.00;;;;;;5086756;28;20515;-60
2022/10/02 10:49:41;;;;;;;4.32;2.58;;;18.80;1.00;;;;;;5075961;28;20043;-61
2022/10/02 10:52:43;;;;;;;8.73;3.05;;;18.90;1.00;;;;;;5078177;28;20040;-60
2022/10/02 10:55:15;;;;;;;7.00;3.10;;;19.00;1.00;;;;;;5088803;28;20037;-60
2022/10/02 10:58:08;;;;;;;5.88;2.90;;;19.10;1.00;;;;;;5085884;28;20343;-60
2022/10/02 11:00:55;;;;;;;4.35;2.75;;;19.10;1.00;;;;;;5091714;28;20074;-61
2022/10/02 11:03:47;;;;;;;7.07;2.85;;;19.20;1.00;;;;;;5087681;28;20024;-60
2022/10/02 11:06:49;;;;;;;8.23;3.17;;;19.30;1.00;;;;;;5091576;28;20016;-60
2022/10/02 11:09:36;;;;;;;9.65;2.65;;;19.50;1.00;;;;;;5088329;28;20028;-60
2022/10/02 11:12:31;;;;;;;6.47;2.90;;;19.50;1.00;;;;;;5088472;28;20025;-60
2022/10/02 11:15:03;;;;;;;7.60;3.50;;;19.60;1.00;;;;;;5079342;28;20126;-60
2022/10/02 11:18:13;;;;;;;6.78;3.15;;;19.70;1.00;;;;;;5090450;28;20412;-60
2022/10/02 11:20:57;;;;;;;6.13;3.97;;;19.70;1.00;;;;;;5084002;28;20024;-61
2022/10/02 11:23:47;;;;;;;8.27;3.65;;;19.60;1.00;;;;;;5074992;28;20100;-60
2022/10/02 11:26:49;;;;;;;5.38;2.90;;;19.90;1.00;;;;;;5076980;28;20031;-60
2022/10/02 11:29:24;;;;;;;9.25;2.97;;;20.10;1.00;;;;;;5078647;28;20032;-60
2022/10/02 11:32:19;;;;;;;6.72;3.58;;;20.30;1.00;;;;;;5089949;28;20381;-60
2022/10/02 11:35:05;;;;;;;6.30;2.72;;;20.10;1.00;;;;;;5091066;28;20470;-60
2022/10/02 11:37:55;;;;;;;8.40;3.33;;;20.10;1.00;;;;;;5090387;28;20081;-60
2022/10/02 11:40:21;;;;;;;7.65;4.07;;;20.40;1.00;;;;;;5091217;28;20024;-60
2022/10/02 11:42:54;;;;;;;6.43;3.72;;;20.40;1.00;;;;;;5080039;28;20439;-61
2022/10/02 11:45:58;;;;;;;9.90;3.80;;;20.40;1.00;;;;;;5089255;28;20274;-58
2022/10/02 11:48:43;;;;;;;7.30;4.50;;;20.40;1.00;;;;;;5084491;28;20138;-55
2022/10/02 11:51:24;;;;;;;8.20;4.90;;;20.60;1.00;;;;;;5085269;28;20020;-55
2022/10/02 11:54:11;;;;;;;7.70;4.20;;;20.70;1.00;;;;;;5078808;28;20501;-54
2022/10/02 11:56:55;;;;;;;7.53;4.20;;;20.70;1.00;;;;;;5091318;28;20445;-56
2022/10/02 11:59:45;;;;;;;7.40;4.28;;;20.80;1.00;;;;;;5091273;28;20532;-52
2022/10/02 12:02:16;;;;;;;8.10;4.53;;;20.90;1.00;;;;;;5091304;28;20035;-53
2022/10/02 12:05:04;;;;;;;7.30;5.28;;;21.00;1.00;;;;;;5093936;28;20059;-55
2022/10/02 12:07:57;;;;;;;9.32;4.70;;;21.00;1.00;;;;;;5093791;28;20397;-55
2022/10/02 12:10:41;;;;;;;6.07;4.13;;;21.00;1.00;;;;;;5094733;28;20473;-55
2022/10/02 12:13:27;;;;;;;8.85;3.58;;;21.20;1.00;;;;;;5091056;28;20068;-55
2022/10/02 12:15:54;;;;;;;7.05;2.90;;;21.50;1.00;;;;;;5089395;28;20036;-54
2022/10/02 12:18:35;;;;;;;8.05;3.20;;;21.50;1.00;;;;;;5092610;28;20020;-53
2022/10/02 12:27:08;;;;;;;8.32;2.42;;;21.70;1.00;;;;;;5094705;28;20035;-51
2022/10/02 12:30:06;;;;;;;5.65;2.58;;;21.60;1.00;;;;;;5090368;28;20031;-52
2022/10/02 12:33:13;;;;;;;5.78;2.80;;;22.00;1.00;;;;;;5089269;28;20090;-52
2022/10/02 12:35:50;;;;;;;8.60;3.17;;;22.10;1.00;;;;;;5077157;28;20020;-51
2022/10/02 12:38:54;;;;;;;10.40;2.83;;;22.10;1.00;;;;;;5089081;28;20424;-55
2022/10/02 12:41:45;;;;;;;9.02;2.55;;;22.30;1.00;;;;;;5091789;28;20114;-51
2022/10/02 12:44:25;;;;;;;10.10;3.22;;;22.30;1.00;;;;;;5093046;28;20536;-51
2022/10/02 12:47:08;;;;;;;6.18;1.98;;;22.60;1.00;;;;;;5094105;28;20500;-51
2022/10/02 12:49:46;;;;;;;8.90;2.85;;;22.70;1.00;;;;;;5106334;28;20062;-56
2022/10/02 12:52:30;;;;;;;6.22;1.67;;;23.00;1.00;;;;;;5087541;28;20043;-51
2022/10/02 12:55:09;;;;;;;4.47;1.73;;;23.20;1.00;;;;;;5106192;28;20040;-53
2022/10/02 12:57:57;;;;;;;6.57;2.17;;;23.20;1.00;;;;;;5092368;28;20012;-53
2022/10/02 13:00:32;;;;;;;3.47;1.80;;;23.20;1.00;;;;;;5109518;28;20028;-52
2022/10/02 13:03:09;;;;;;;6.68;1.95;;;23.50;1.00;;;;;;5093205;28;20109;-52
2022/10/02 13:05:39;;;;;;;6.55;2.50;;;23.30;1.00;;;;;;5093640;28;20036;-54
2022/10/02 13:08:10;;;;;;;2.33;1.73;;;23.50;1.00;;;;;;5091682;28;20020;-56
2022/10/02 13:11:03;;;;;;;6.63;2.25;;;23.50;1.00;;;;;;5093244;28;20034;-56
2022/10/02 13:13:55;;;;;;;5.40;2.28;;;23.50;1.00;;;;;;5091325;28;20385;-55
2022/10/02 13:16:45;;;;;;;9.00;2.40;;;23.40;1.00;;;;;;5093388;28;20096;-53
2022/10/02 13:19:59;;;;;;;7.15;2.38;;;23.40;1.00;;;;;;5092246;28;20024;-51
2022/10/02 13:22:45;;;;;;;10.98;2.55;;;23.50;1.00;;;;;;5090511;28;20047;-51
2022/10/02 13:25:34;;;;;;;7.43;2.63;;;23.40;1.00;;;;;;5081353;28;20035;-54
2022/10/02 13:28:12;;;;;;;6.32;2.35;;;23.30;1.00;;;;;;5090120;28;20073;-55
2022/10/02 13:31:01;;;;;;;5.10;2.50;;;23.40;1.00;;;;;;5093390;28;20145;-53
2022/10/02 13:33:30;;;;;;;7.00;2.13;;;23.40;1.00;;;;;;5082982;28;20039;-54
2022/10/02 13:36:14;;;;;;;6.65;2.55;;;23.30;1.00;;;;;;5093081;28;20028;-53
2022/10/02 13:38:48;;;;;;;5.70;2.60;;;23.30;1.00;;;;;;5092173;28;20020;-52
2022/10/02 13:41:21;;;;;;;;;;;23.40;1.00;;;;;;5093186;28;20036;-52
2022/10/02 13:43:59;;;;;;;6.85;2.90;;;23.20;1.00;;;;;;5085845;28;20350;-51
2022/10/02 13:46:40;;;;;;;8.20;2.72;;;23.20;1.00;;;;;;5091686;28;20039;-52
2022/10/02 13:49:17;;;;;;;4.85;2.47;;;23.10;1.00;;;;;;5107016;28;20024;-52
2022/10/02 13:52:10;;;;;;;7.40;3.00;;;23.20;1.00;;;;;;5086392;28;20048;-53
2022/10/02 13:54:38;;;;;;;9.07;3.10;;;23.20;1.00;;;;;;5083350;28;20040;-56
2022/10/02 13:57:19;;;;;;;7.78;3.40;;;23.20;1.00;;;;;;5085239;28;20016;-56
2022/10/02 14:00:22;;;;;;;10.93;2.90;;;23.20;1.00;;;;;;5090311;28;20441;-55
2022/10/02 14:02:56;;;;;;;7.68;2.50;;;23.10;1.00;;;;;;5087200;28;20031;-55
2022/10/02 14:05:35;;;;;;;6.90;2.47;;;23.10;1.00;;;;;;5090332;28;20115;-53
2022/10/02 14:08:24;;;;;;;7.95;2.38;;;23.20;1.00;;;;;;5081430;28;20024;-52
2022/10/02 14:11:28;;;;;;;8.95;2.47;;;23.20;1.00;;;;;;5085915;28;20062;-54
2022/10/02 14:14:24;;;;;;;7.40;2.55;;;23.30;1.00;;;;;;5064244;28;20071;-52
2022/10/02 14:17:17;;;;;;;7.15;2.80;;;23.20;1.00;;;;;;5089095;28;20043;-54
2022/10/02 14:20:01;;;;;;;7.22;2.53;;;23.20;1.00;;;;;;5088496;28;20020;-51
2022/10/02 14:22:32;;;;;;;5.65;2.15;;;23.20;1.00;;;;;;5084126;28;20037;-49
2022/10/02 14:25:19;;;;;;;5.97;1.90;;;23.10;1.00;;;;;;5085711;28;20009;-51
2022/10/02 14:27:55;;;;;;;7.68;2.22;;;23.30;1.00;;;;;;5082333;28;20319;-50